sensor_id;sensor_type;location;lat;lon;timestamp;temperature;humidity
12119;DHT22;6123;48.864;9.200;2022-07-25T00:00:19;22.30;99.90
12119;DHT22;6123;48.864;9.200;2022-07-25T00:02:45;22.20;99.90
12119;DHT22;6123;48.864;9.200;2022-07-25T00:05:10;22.20;99.90
12119;DHT22;6123;48.864;9.200;2022-07-25T00:07:36;22.30;99.90
12119;DHT22;6123;48.864;9.200;2022-07-25T00:10:02;22.20;99.90
12119;DHT22;6123;48.864;9.200;2022-07-25T00:12:31;22.20;99.90
12119;DHT22;6123;48.864;9.200;2022-07-25T00:14:56;22.20;99.90
12119;DHT22;6123;48.864;9.200;2022-07-25T00:17:22;22.20;99.90
12119;DHT22;6123;48.864;9.200;2022-07-25T00:19:50;22.10;99.90
12119;DHT22;6123;48.864;9.200;2022-07-25T00:22:16;22.00;99.90
12119;DHT22;6123;48.864;9.200;2022-07-25T00:24:41;22.00;99.90
12119;DHT22;6123;48.864;9.200;2022-07-25T00:27:07;21.90;99.90
12119;DHT22;6123;48.864;9.200;2022-07-25T00:29:33;21.90;99.90
12119;DHT22;6123;48.864;9.200;2022-07-25T00:31:58;21.90;99.90
12119;DHT22;6123;48.864;9.200;2022-07-25T00:34:24;21.80;99.90
12119;DHT22;6123;48.864;9.200;2022-07-25T00:36:50;21.80;99.90
12119;DHT22;6123;48.864;9.200;2022-07-25T00:39:15;21.80;99.90
12119;DHT22;6123;48.864;9.200;2022-07-25T00:41:41;21.70;99.90
12119;DHT22;6123;48.864;9.200;2022-07-25T00:44:09;21.70;99.90
12119;DHT22;6123;48.864;9.200;2022-07-25T00:46:37;21.70;99.90
12119;DHT22;6123;48.864;9.200;2022-07-25T00:49:08;21.60;99.90
12119;DHT22;6123;48.864;9.200;2022-07-25T00:51:33;21.60;99.90
12119;DHT22;6123;48.864;9.200;2022-07-25T00:54:02;21.50;99.90
12119;DHT22;6123;48.864;9.200;2022-07-25T00:56:27;21.50;99.90
12119;DHT22;6123;48.864;9.200;2022-07-25T00:58:53;21.60;99.90
12119;DHT22;6123;48.864;9.200;2022-07-25T01:01:19;21.50;99.90
12119;DHT22;6123;48.864;9.200;2022-07-25T01:03:45;21.50;99.90
12119;DHT22;6123;48.864;9.200;2022-07-25T01:06:11;21.50;99.90
12119;DHT22;6123;48.864;9.200;2022-07-25T01:08:41;21.40;99.90
12119;DHT22;6123;48.864;9.200;2022-07-25T01:11:09;21.60;99.90
12119;DHT22;6123;48.864;9.200;2022-07-25T01:13:35;21.60;99.90
12119;DHT22;6123;48.864;9.200;2022-07-25T01:16:00;21.70;99.90
12119;DHT22;6123;48.864;9.200;2022-07-25T01:18:26;21.80;99.90
12119;DHT22;6123;48.864;9.200;2022-07-25T01:20:54;21.80;99.90
12119;DHT22;6123;48.864;9.200;2022-07-25T01:23:20;22.00;99.90
12119;DHT22;6123;48.864;9.200;2022-07-25T01:25:45;22.20;99.90
12119;DHT22;6123;48.864;9.200;2022-07-25T01:28:12;22.20;99.90
12119;DHT22;6123;48.864;9.200;2022-07-25T01:30:38;22.20;99.90
12119;DHT22;6123;48.864;9.200;2022-07-25T01:33:03;22.30;99.90
12119;DHT22;6123;48.864;9.200;2022-07-25T01:35:29;22.20;99.90
12119;DHT22;6123;48.864;9.200;2022-07-25T01:37:55;22.20;99.90
12119;DHT22;6123;48.864;9.200;2022-07-25T01:40:23;22.20;99.90
12119;DHT22;6123;48.864;9.200;2022-07-25T01:42:51;22.20;99.90
12119;DHT22;6123;48.864;9.200;2022-07-25T01:45:16;22.20;99.90
12119;DHT22;6123;48.864;9.200;2022-07-25T01:47:42;22.20;99.90
12119;DHT22;6123;48.864;9.200;2022-07-25T01:50:08;22.20;99.90
12119;DHT22;6123;48.864;9.200;2022-07-25T01:52:36;22.10;99.90
12119;DHT22;6123;48.864;9.200;2022-07-25T01:55:02;22.10;99.90
12119;DHT22;6123;48.864;9.200;2022-07-25T01:57:28;22.20;99.90
12119;DHT22;6123;48.864;9.200;2022-07-25T01:59:54;22.10;99.90
12119;DHT22;6123;48.864;9.200;2022-07-25T02:02:19;22.10;99.90
12119;DHT22;6123;48.864;9.200;2022-07-25T02:04:48;22.00;99.90
12119;DHT22;6123;48.864;9.200;2022-07-25T02:07:13;22.00;99.90
12119;DHT22;6123;48.864;9.200;2022-07-25T02:09:39;22.00;99.90
12119;DHT22;6123;48.864;9.200;2022-07-25T02:12:05;22.00;99.90
12119;DHT22;6123;48.864;9.200;2022-07-25T02:14:34;22.00;99.90
12119;DHT22;6123;48.864;9.200;2022-07-25T02:17:02;22.00;99.90
12119;DHT22;6123;48.864;9.200;2022-07-25T02:19:28;22.10;99.90
12119;DHT22;6123;48.864;9.200;2022-07-25T02:21:56;22.10;99.90
12119;DHT22;6123;48.864;9.200;2022-07-25T02:24:21;22.00;99.90
12119;DHT22;6123;48.864;9.200;2022-07-25T02:26:47;22.00;99.90
12119;DHT22;6123;48.864;9.200;2022-07-25T02:29:12;21.90;99.90
12119;DHT22;6123;48.864;9.200;2022-07-25T02:31:40;22.00;99.90
12119;DHT22;6123;48.864;9.200;2022-07-25T02:34:06;22.10;99.90
12119;DHT22;6123;48.864;9.200;2022-07-25T02:36:32;22.10;99.90
12119;DHT22;6123;48.864;9.200;2022-07-25T02:38:57;22.10;99.90
12119;DHT22;6123;48.864;9.200;2022-07-25T02:41:23;22.10;99.90
12119;DHT22;6123;48.864;9.200;2022-07-25T02:43:53;22.10;99.90
12119;DHT22;6123;48.864;9.200;2022-07-25T02:46:19;22.00;99.90
12119;DHT22;6123;48.864;9.200;2022-07-25T02:48:45;22.00;99.90
12119;DHT22;6123;48.864;9.200;2022-07-25T02:51:13;22.00;99.90
12119;DHT22;6123;48.864;9.200;2022-07-25T02:53:38;21.90;99.90
12119;DHT22;6123;48.864;9.200;2022-07-25T02:56:04;21.90;99.90
12119;DHT22;6123;48.864;9.200;2022-07-25T02:58:30;21.80;99.90
12119;DHT22;6123;48.864;9.200;2022-07-25T03:00:56;21.90;99.90
12119;DHT22;6123;48.864;9.200;2022-07-25T03:03:21;21.70;99.90
12119;DHT22;6123;48.864;9.200;2022-07-25T03:05:49;21.80;99.90
12119;DHT22;6123;48.864;9.200;2022-07-25T03:08:15;21.80;99.90
12119;DHT22;6123;48.864;9.200;2022-07-25T03:10:41;21.80;99.90
12119;DHT22;6123;48.864;9.200;2022-07-25T03:13:07;21.70;99.90
12119;DHT22;6123;48.864;9.200;2022-07-25T03:15:32;21.70;99.90
12119;DHT22;6123;48.864;9.200;2022-07-25T03:17:58;21.80;99.90
12119;DHT22;6123;48.864;9.200;2022-07-25T03:20:26;21.80;99.90
12119;DHT22;6123;48.864;9.200;2022-07-25T03:22:52;21.80;99.90
12119;DHT22;6123;48.864;9.200;2022-07-25T03:25:17;21.70;99.90
12119;DHT22;6123;48.864;9.200;2022-07-25T03:27:43;21.60;99.90
12119;DHT22;6123;48.864;9.200;2022-07-25T03:30:09;21.50;99.90
12119;DHT22;6123;48.864;9.200;2022-07-25T03:32:36;21.50;99.90
12119;DHT22;6123;48.864;9.200;2022-07-25T03:35:02;21.50;99.90
12119;DHT22;6123;48.864;9.200;2022-07-25T03:37:31;21.40;99.90
12119;DHT22;6123;48.864;9.200;2022-07-25T03:39:56;21.30;99.90
12119;DHT22;6123;48.864;9.200;2022-07-25T03:42:22;21.10;99.90
12119;DHT22;6123;48.864;9.200;2022-07-25T03:44:48;21.10;99.90
12119;DHT22;6123;48.864;9.200;2022-07-25T03:47:14;21.00;99.90
12119;DHT22;6123;48.864;9.200;2022-07-25T03:49:40;21.00;99.90
12119;DHT22;6123;48.864;9.200;2022-07-25T03:52:06;21.20;99.90
12119;DHT22;6123;48.864;9.200;2022-07-25T03:54:31;21.40;99.90
12119;DHT22;6123;48.864;9.200;2022-07-25T03:56:57;21.30;99.90
12119;DHT22;6123;48.864;9.200;2022-07-25T03:59:22;21.40;99.90
12119;DHT22;6123;48.864;9.200;2022-07-25T04:01:49;21.40;99.90
12119;DHT22;6123;48.864;9.200;2022-07-25T04:04:16;21.50;99.90
12119;DHT22;6123;48.864;9.200;2022-07-25T04:06:42;21.50;99.90
12119;DHT22;6123;48.864;9.200;2022-07-25T04:09:09;21.50;99.90
12119;DHT22;6123;48.864;9.200;2022-07-25T04:11:34;21.50;99.90
12119;DHT22;6123;48.864;9.200;2022-07-25T04:14:01;21.40;99.90
12119;DHT22;6123;48.864;9.200;2022-07-25T04:16:30;21.40;99.90
12119;DHT22;6123;48.864;9.200;2022-07-25T04:18:56;21.40;99.90
12119;DHT22;6123;48.864;9.200;2022-07-25T04:21:22;21.40;99.90
12119;DHT22;6123;48.864;9.200;2022-07-25T04:23:48;21.30;99.90
12119;DHT22;6123;48.864;9.200;2022-07-25T04:26:14;21.30;99.90
12119;DHT22;6123;48.864;9.200;2022-07-25T04:28:40;21.20;99.90
12119;DHT22;6123;48.864;9.200;2022-07-25T04:31:06;21.20;99.90
12119;DHT22;6123;48.864;9.200;2022-07-25T04:33:37;21.10;99.90
12119;DHT22;6123;48.864;9.200;2022-07-25T04:36:03;21.20;99.90
12119;DHT22;6123;48.864;9.200;2022-07-25T04:38:32;21.20;99.90
12119;DHT22;6123;48.864;9.200;2022-07-25T04:40:58;21.30;99.90
12119;DHT22;6123;48.864;9.200;2022-07-25T04:43:24;21.30;99.90
12119;DHT22;6123;48.864;9.200;2022-07-25T04:45:50;21.20;99.90
12119;DHT22;6123;48.864;9.200;2022-07-25T04:48:16;21.30;99.90
12119;DHT22;6123;48.864;9.200;2022-07-25T04:50:41;21.40;99.90
12119;DHT22;6123;48.864;9.200;2022-07-25T04:53:10;21.20;99.90
12119;DHT22;6123;48.864;9.200;2022-07-25T04:55:35;21.40;99.90
12119;DHT22;6123;48.864;9.200;2022-07-25T04:58:03;21.50;99.90
12119;DHT22;6123;48.864;9.200;2022-07-25T05:00:29;21.50;99.90
12119;DHT22;6123;48.864;9.200;2022-07-25T05:02:55;21.60;99.90
12119;DHT22;6123;48.864;9.200;2022-07-25T05:05:21;21.60;99.90
12119;DHT22;6123;48.864;9.200;2022-07-25T05:07:54;21.70;99.90
12119;DHT22;6123;48.864;9.200;2022-07-25T05:10:20;21.80;99.90
12119;DHT22;6123;48.864;9.200;2022-07-25T05:12:46;21.70;99.90
12119;DHT22;6123;48.864;9.200;2022-07-25T05:15:11;21.80;99.90
12119;DHT22;6123;48.864;9.200;2022-07-25T05:17:37;21.90;99.90
12119;DHT22;6123;48.864;9.200;2022-07-25T05:20:03;21.90;99.90
12119;DHT22;6123;48.864;9.200;2022-07-25T05:22:29;22.00;99.90
12119;DHT22;6123;48.864;9.200;2022-07-25T05:24:54;22.00;99.90
12119;DHT22;6123;48.864;9.200;2022-07-25T05:27:20;22.10;99.90
12119;DHT22;6123;48.864;9.200;2022-07-25T05:29:46;22.20;99.90
12119;DHT22;6123;48.864;9.200;2022-07-25T05:32:16;22.30;99.90
12119;DHT22;6123;48.864;9.200;2022-07-25T05:34:42;22.50;99.90
12119;DHT22;6123;48.864;9.200;2022-07-25T05:37:10;22.60;99.90
12119;DHT22;6123;48.864;9.200;2022-07-25T05:39:36;22.60;99.90
12119;DHT22;6123;48.864;9.200;2022-07-25T05:42:04;22.60;99.90
12119;DHT22;6123;48.864;9.200;2022-07-25T05:44:30;22.70;99.90
12119;DHT22;6123;48.864;9.200;2022-07-25T05:46:55;22.80;99.90
12119;DHT22;6123;48.864;9.200;2022-07-25T05:49:21;23.00;99.90
12119;DHT22;6123;48.864;9.200;2022-07-25T05:51:47;23.00;99.90
12119;DHT22;6123;48.864;9.200;2022-07-25T05:54:13;23.30;99.90
12119;DHT22;6123;48.864;9.200;2022-07-25T05:56:38;23.30;99.90
12119;DHT22;6123;48.864;9.200;2022-07-25T05:59:06;23.40;99.90
12119;DHT22;6123;48.864;9.200;2022-07-25T06:01:32;23.50;99.90
12119;DHT22;6123;48.864;9.200;2022-07-25T06:03:57;23.50;99.90
12119;DHT22;6123;48.864;9.200;2022-07-25T06:06:23;23.60;99.90
12119;DHT22;6123;48.864;9.200;2022-07-25T06:08:48;23.70;99.90
12119;DHT22;6123;48.864;9.200;2022-07-25T06:11:16;23.70;99.90
12119;DHT22;6123;48.864;9.200;2022-07-25T06:13:42;23.70;99.90
12119;DHT22;6123;48.864;9.200;2022-07-25T06:16:10;23.90;99.90
12119;DHT22;6123;48.864;9.200;2022-07-25T06:18:38;24.10;99.90
12119;DHT22;6123;48.864;9.200;2022-07-25T06:21:04;24.00;99.90
12119;DHT22;6123;48.864;9.200;2022-07-25T06:23:30;24.10;99.90
12119;DHT22;6123;48.864;9.200;2022-07-25T06:25:58;24.20;99.90
12119;DHT22;6123;48.864;9.200;2022-07-25T06:28:24;24.30;99.90
12119;DHT22;6123;48.864;9.200;2022-07-25T06:30:49;24.40;99.90
12119;DHT22;6123;48.864;9.200;2022-07-25T06:33:17;24.50;99.90
12119;DHT22;6123;48.864;9.200;2022-07-25T06:35:43;24.60;99.90
12119;DHT22;6123;48.864;9.200;2022-07-25T06:38:09;24.70;99.90
12119;DHT22;6123;48.864;9.200;2022-07-25T06:40:34;24.80;99.90
12119;DHT22;6123;48.864;9.200;2022-07-25T06:43:00;25.00;99.90
12119;DHT22;6123;48.864;9.200;2022-07-25T06:45:28;25.10;99.90
12119;DHT22;6123;48.864;9.200;2022-07-25T06:47:56;25.10;99.90
12119;DHT22;6123;48.864;9.200;2022-07-25T06:50:22;25.20;99.90
12119;DHT22;6123;48.864;9.200;2022-07-25T06:52:47;25.40;99.90
12119;DHT22;6123;48.864;9.200;2022-07-25T06:55:15;25.50;99.90
12119;DHT22;6123;48.864;9.200;2022-07-25T06:57:42;25.60;99.90
12119;DHT22;6123;48.864;9.200;2022-07-25T07:00:10;25.60;99.90
12119;DHT22;6123;48.864;9.200;2022-07-25T07:02:56;25.70;99.90
12119;DHT22;6123;48.864;9.200;2022-07-25T07:05:23;25.80;99.90
12119;DHT22;6123;48.864;9.200;2022-07-25T07:07:50;25.80;99.90
12119;DHT22;6123;48.864;9.200;2022-07-25T07:10:16;25.90;99.90
12119;DHT22;6123;48.864;9.200;2022-07-25T07:12:43;25.90;99.90
12119;DHT22;6123;48.864;9.200;2022-07-25T07:15:09;25.90;99.90
12119;DHT22;6123;48.864;9.200;2022-07-25T07:17:36;26.00;99.90
12119;DHT22;6123;48.864;9.200;2022-07-25T07:20:05;26.00;99.90
12119;DHT22;6123;48.864;9.200;2022-07-25T07:22:31;26.10;99.90
12119;DHT22;6123;48.864;9.200;2022-07-25T07:25:17;26.30;99.90
12119;DHT22;6123;48.864;9.200;2022-07-25T07:27:43;26.40;99.90
12119;DHT22;6123;48.864;9.200;2022-07-25T07:30:10;26.50;99.90
12119;DHT22;6123;48.864;9.200;2022-07-25T07:32:36;26.60;99.90
12119;DHT22;6123;48.864;9.200;2022-07-25T07:35:02;26.90;99.90
12119;DHT22;6123;48.864;9.200;2022-07-25T07:37:28;26.90;99.90
12119;DHT22;6123;48.864;9.200;2022-07-25T07:39:55;27.00;99.90
12119;DHT22;6123;48.864;9.200;2022-07-25T07:42:21;27.10;99.90
12119;DHT22;6123;48.864;9.200;2022-07-25T07:44:47;27.10;99.90
12119;DHT22;6123;48.864;9.200;2022-07-25T07:47:15;27.30;99.90
12119;DHT22;6123;48.864;9.200;2022-07-25T07:49:40;27.50;99.90
12119;DHT22;6123;48.864;9.200;2022-07-25T07:52:06;27.50;99.90
12119;DHT22;6123;48.864;9.200;2022-07-25T07:54:34;27.60;99.90
12119;DHT22;6123;48.864;9.200;2022-07-25T07:57:18;27.70;99.90
12119;DHT22;6123;48.864;9.200;2022-07-25T07:59:44;27.70;99.90
12119;DHT22;6123;48.864;9.200;2022-07-25T08:02:09;27.80;99.90
12119;DHT22;6123;48.864;9.200;2022-07-25T08:04:35;27.80;99.90
12119;DHT22;6123;48.864;9.200;2022-07-25T08:07:03;28.00;99.90
12119;DHT22;6123;48.864;9.200;2022-07-25T08:09:28;28.00;99.90
12119;DHT22;6123;48.864;9.200;2022-07-25T08:11:56;28.00;99.90
12119;DHT22;6123;48.864;9.200;2022-07-25T08:14:22;28.10;99.90
12119;DHT22;6123;48.864;9.200;2022-07-25T08:16:50;28.20;99.90
12119;DHT22;6123;48.864;9.200;2022-07-25T08:19:19;28.40;99.90
12119;DHT22;6123;48.864;9.200;2022-07-25T08:21:45;28.50;99.90
12119;DHT22;6123;48.864;9.200;2022-07-25T08:24:13;28.70;99.90
12119;DHT22;6123;48.864;9.200;2022-07-25T08:26:39;28.70;99.90
12119;DHT22;6123;48.864;9.200;2022-07-25T08:29:04;28.80;99.90
12119;DHT22;6123;48.864;9.200;2022-07-25T08:31:30;29.00;99.90
12119;DHT22;6123;48.864;9.200;2022-07-25T08:33:58;29.00;99.90
12119;DHT22;6123;48.864;9.200;2022-07-25T08:36:23;29.10;99.90
12119;DHT22;6123;48.864;9.200;2022-07-25T08:38:51;29.10;99.90
12119;DHT22;6123;48.864;9.200;2022-07-25T08:41:19;29.20;99.90
12119;DHT22;6123;48.864;9.200;2022-07-25T08:43:46;29.20;99.90
12119;DHT22;6123;48.864;9.200;2022-07-25T08:46:16;29.50;99.90
12119;DHT22;6123;48.864;9.200;2022-07-25T08:48:42;29.60;99.90
12119;DHT22;6123;48.864;9.200;2022-07-25T08:51:09;29.70;99.90
12119;DHT22;6123;48.864;9.200;2022-07-25T08:53:35;29.90;99.90
12119;DHT22;6123;48.864;9.200;2022-07-25T08:56:07;29.90;99.90
12119;DHT22;6123;48.864;9.200;2022-07-25T08:58:33;30.00;99.90
12119;DHT22;6123;48.864;9.200;2022-07-25T09:00:59;30.10;99.90
12119;DHT22;6123;48.864;9.200;2022-07-25T09:03:25;30.30;99.90
12119;DHT22;6123;48.864;9.200;2022-07-25T09:05:51;30.30;99.90
12119;DHT22;6123;48.864;9.200;2022-07-25T09:08:19;30.30;99.90
12119;DHT22;6123;48.864;9.200;2022-07-25T09:10:52;30.30;99.90
12119;DHT22;6123;48.864;9.200;2022-07-25T09:13:19;30.40;99.90
12119;DHT22;6123;48.864;9.200;2022-07-25T09:15:51;30.60;99.90
12119;DHT22;6123;48.864;9.200;2022-07-25T09:18:22;30.70;99.90
12119;DHT22;6123;48.864;9.200;2022-07-25T09:20:49;30.80;99.90
12119;DHT22;6123;48.864;9.200;2022-07-25T09:23:34;31.00;99.30
12119;DHT22;6123;48.864;9.200;2022-07-25T09:26:11;31.10;98.30
12119;DHT22;6123;48.864;9.200;2022-07-25T09:28:48;31.40;97.70
12119;DHT22;6123;48.864;9.200;2022-07-25T09:31:15;31.50;97.30
12119;DHT22;6123;48.864;9.200;2022-07-25T09:33:55;31.50;96.50
12119;DHT22;6123;48.864;9.200;2022-07-25T09:36:21;31.40;95.60
12119;DHT22;6123;48.864;9.200;2022-07-25T09:41:20;31.40;96.40
12119;DHT22;6123;48.864;9.200;2022-07-25T09:43:48;31.30;96.20
12119;DHT22;6123;48.864;9.200;2022-07-25T09:46:13;31.30;96.20
12119;DHT22;6123;48.864;9.200;2022-07-25T09:48:43;31.50;96.50
12119;DHT22;6123;48.864;9.200;2022-07-25T09:51:09;31.60;95.30
12119;DHT22;6123;48.864;9.200;2022-07-25T09:53:34;31.70;94.70
12119;DHT22;6123;48.864;9.200;2022-07-25T09:56:01;31.70;94.70
12119;DHT22;6123;48.864;9.200;2022-07-25T09:58:28;31.80;95.20
12119;DHT22;6123;48.864;9.200;2022-07-25T10:01:03;31.80;94.90
12119;DHT22;6123;48.864;9.200;2022-07-25T10:04:03;32.00;94.80
12119;DHT22;6123;48.864;9.200;2022-07-25T10:06:42;31.90;93.40
12119;DHT22;6123;48.864;9.200;2022-07-25T10:09:14;31.90;93.00
12119;DHT22;6123;48.864;9.200;2022-07-25T10:14:31;32.30;93.00
12119;DHT22;6123;48.864;9.200;2022-07-25T10:16:58;32.30;92.50
12119;DHT22;6123;48.864;9.200;2022-07-25T10:19:45;32.40;92.30
12119;DHT22;6123;48.864;9.200;2022-07-25T10:22:12;32.40;92.20
12119;DHT22;6123;48.864;9.200;2022-07-25T10:24:43;32.60;91.80
12119;DHT22;6123;48.864;9.200;2022-07-25T10:27:11;32.90;92.40
12119;DHT22;6123;48.864;9.200;2022-07-25T10:29:38;32.90;91.20
12119;DHT22;6123;48.864;9.200;2022-07-25T10:32:09;32.90;90.60
12119;DHT22;6123;48.864;9.200;2022-07-25T10:34:36;33.10;90.00
12119;DHT22;6123;48.864;9.200;2022-07-25T10:39:39;33.70;88.90
12119;DHT22;6123;48.864;9.200;2022-07-25T10:42:12;33.70;89.80
12119;DHT22;6123;48.864;9.200;2022-07-25T10:47:12;34.10;88.30
12119;DHT22;6123;48.864;9.200;2022-07-25T10:49:42;34.30;86.80
12119;DHT22;6123;48.864;9.200;2022-07-25T10:52:17;34.40;85.90
12119;DHT22;6123;48.864;9.200;2022-07-25T10:54:57;34.40;84.80
12119;DHT22;6123;48.864;9.200;2022-07-25T10:57:23;34.30;82.40
12119;DHT22;6123;48.864;9.200;2022-07-25T10:59:49;34.10;82.40
12119;DHT22;6123;48.864;9.200;2022-07-25T11:02:18;34.20;82.60
12119;DHT22;6123;48.864;9.200;2022-07-25T11:05:01;34.00;80.70
12119;DHT22;6123;48.864;9.200;2022-07-25T11:07:27;34.20;81.70
12119;DHT22;6123;48.864;9.200;2022-07-25T11:10:02;34.60;81.10
12119;DHT22;6123;48.864;9.200;2022-07-25T11:12:31;34.80;79.00
12119;DHT22;6123;48.864;9.200;2022-07-25T11:15:01;34.50;78.30
12119;DHT22;6123;48.864;9.200;2022-07-25T11:17:27;34.80;77.00
12119;DHT22;6123;48.864;9.200;2022-07-25T11:20:06;35.00;76.20
12119;DHT22;6123;48.864;9.200;2022-07-25T11:22:36;35.30;77.00
12119;DHT22;6123;48.864;9.200;2022-07-25T11:25:09;34.80;77.10
12119;DHT22;6123;48.864;9.200;2022-07-25T11:27:38;35.00;75.20
12119;DHT22;6123;48.864;9.200;2022-07-25T11:35:11;35.80;73.90
12119;DHT22;6123;48.864;9.200;2022-07-25T11:37:40;35.90;73.20
12119;DHT22;6123;48.864;9.200;2022-07-25T11:40:06;36.30;72.00
12119;DHT22;6123;48.864;9.200;2022-07-25T11:42:40;36.80;71.60
12119;DHT22;6123;48.864;9.200;2022-07-25T11:48:09;37.20;68.10
12119;DHT22;6123;48.864;9.200;2022-07-25T11:50:39;37.40;70.20
12119;DHT22;6123;48.864;9.200;2022-07-25T11:53:14;37.90;67.60
12119;DHT22;6123;48.864;9.200;2022-07-25T11:55:42;38.10;67.00
12119;DHT22;6123;48.864;9.200;2022-07-25T11:58:11;38.40;65.10
12119;DHT22;6123;48.864;9.200;2022-07-25T12:00:44;38.70;65.00
12119;DHT22;6123;48.864;9.200;2022-07-25T12:03:16;39.30;63.30
12119;DHT22;6123;48.864;9.200;2022-07-25T12:05:43;39.30;60.80
12119;DHT22;6123;48.864;9.200;2022-07-25T12:08:13;38.60;60.50
12119;DHT22;6123;48.864;9.200;2022-07-25T12:10:42;37.20;61.00
12119;DHT22;6123;48.864;9.200;2022-07-25T12:13:09;35.80;63.50
12119;DHT22;6123;48.864;9.200;2022-07-25T12:15:40;35.10;65.40
12119;DHT22;6123;48.864;9.200;2022-07-25T12:18:09;34.60;66.90
12119;DHT22;6123;48.864;9.200;2022-07-25T12:20:39;34.50;68.60
12119;DHT22;6123;48.864;9.200;2022-07-25T12:23:07;34.40;67.90
12119;DHT22;6123;48.864;9.200;2022-07-25T12:25:38;35.00;68.60
12119;DHT22;6123;48.864;9.200;2022-07-25T12:28:04;35.60;67.30
12119;DHT22;6123;48.864;9.200;2022-07-25T12:30:31;35.80;66.20
12119;DHT22;6123;48.864;9.200;2022-07-25T12:32:57;35.40;65.70
12119;DHT22;6123;48.864;9.200;2022-07-25T12:35:24;35.80;65.70
12119;DHT22;6123;48.864;9.200;2022-07-25T12:37:50;35.10;66.20
12119;DHT22;6123;48.864;9.200;2022-07-25T12:40:16;34.70;68.00
12119;DHT22;6123;48.864;9.200;2022-07-25T12:42:43;35.10;67.30
12119;DHT22;6123;48.864;9.200;2022-07-25T12:45:13;35.40;68.30
12119;DHT22;6123;48.864;9.200;2022-07-25T12:47:42;35.40;67.00
12119;DHT22;6123;48.864;9.200;2022-07-25T12:50:10;34.50;67.50
12119;DHT22;6123;48.864;9.200;2022-07-25T12:52:36;33.80;70.00
12119;DHT22;6123;48.864;9.200;2022-07-25T12:55:04;33.50;70.30
12119;DHT22;6123;48.864;9.200;2022-07-25T12:57:34;33.30;71.10
12119;DHT22;6123;48.864;9.200;2022-07-25T13:00:04;33.40;71.30
12119;DHT22;6123;48.864;9.200;2022-07-25T13:02:30;33.80;70.90
12119;DHT22;6123;48.864;9.200;2022-07-25T13:04:56;34.10;71.00
12119;DHT22;6123;48.864;9.200;2022-07-25T13:07:21;35.00;69.70
12119;DHT22;6123;48.864;9.200;2022-07-25T13:09:47;35.40;69.20
12119;DHT22;6123;48.864;9.200;2022-07-25T13:12:13;34.90;70.40
12119;DHT22;6123;48.864;9.200;2022-07-25T13:14:41;35.30;70.60
12119;DHT22;6123;48.864;9.200;2022-07-25T13:17:09;35.70;68.20
12119;DHT22;6123;48.864;9.200;2022-07-25T13:19:37;35.80;68.90
12119;DHT22;6123;48.864;9.200;2022-07-25T13:22:03;35.90;68.90
12119;DHT22;6123;48.864;9.200;2022-07-25T13:24:28;35.30;68.90
12119;DHT22;6123;48.864;9.200;2022-07-25T13:27:00;35.10;68.70
12119;DHT22;6123;48.864;9.200;2022-07-25T13:29:26;34.70;70.20
12119;DHT22;6123;48.864;9.200;2022-07-25T13:31:56;34.30;70.00
12119;DHT22;6123;48.864;9.200;2022-07-25T13:34:24;35.00;71.70
12119;DHT22;6123;48.864;9.200;2022-07-25T13:36:50;36.00;70.30
12119;DHT22;6123;48.864;9.200;2022-07-25T13:39:16;36.10;68.40
12119;DHT22;6123;48.864;9.200;2022-07-25T13:41:42;35.70;69.20
12119;DHT22;6123;48.864;9.200;2022-07-25T13:44:07;35.80;69.60
12119;DHT22;6123;48.864;9.200;2022-07-25T13:46:33;35.40;67.70
12119;DHT22;6123;48.864;9.200;2022-07-25T13:48:59;35.10;68.50
12119;DHT22;6123;48.864;9.200;2022-07-25T13:51:25;34.80;65.90
12119;DHT22;6123;48.864;9.200;2022-07-25T13:53:51;35.00;64.20
12119;DHT22;6123;48.864;9.200;2022-07-25T13:56:16;35.30;60.80
12119;DHT22;6123;48.864;9.200;2022-07-25T13:58:47;35.30;61.80
12119;DHT22;6123;48.864;9.200;2022-07-25T14:01:15;35.00;63.50
12119;DHT22;6123;48.864;9.200;2022-07-25T14:03:40;34.60;66.20
12119;DHT22;6123;48.864;9.200;2022-07-25T14:06:11;33.90;68.40
12119;DHT22;6123;48.864;9.200;2022-07-25T14:08:42;33.50;69.90
12119;DHT22;6123;48.864;9.200;2022-07-25T14:11:09;33.30;71.30
12119;DHT22;6123;48.864;9.200;2022-07-25T14:13:35;33.00;73.60
12119;DHT22;6123;48.864;9.200;2022-07-25T14:16:01;32.80;75.20
12119;DHT22;6123;48.864;9.200;2022-07-25T14:18:27;32.80;74.30
12119;DHT22;6123;48.864;9.200;2022-07-25T14:20:57;32.80;74.80
12119;DHT22;6123;48.864;9.200;2022-07-25T14:23:25;32.70;75.60
12119;DHT22;6123;48.864;9.200;2022-07-25T14:25:51;32.10;78.60
12119;DHT22;6123;48.864;9.200;2022-07-25T14:28:17;31.70;80.50
12119;DHT22;6123;48.864;9.200;2022-07-25T14:30:45;31.80;81.20
12119;DHT22;6123;48.864;9.200;2022-07-25T14:33:10;32.10;80.00
12119;DHT22;6123;48.864;9.200;2022-07-25T14:35:36;32.30;79.90
12119;DHT22;6123;48.864;9.200;2022-07-25T14:38:03;32.50;79.20
12119;DHT22;6123;48.864;9.200;2022-07-25T14:40:30;32.90;78.00
12119;DHT22;6123;48.864;9.200;2022-07-25T14:42:56;34.10;77.20
12119;DHT22;6123;48.864;9.200;2022-07-25T14:45:21;34.90;75.40
12119;DHT22;6123;48.864;9.200;2022-07-25T14:47:49;35.10;74.80
12119;DHT22;6123;48.864;9.200;2022-07-25T14:50:15;35.20;75.00
12119;DHT22;6123;48.864;9.200;2022-07-25T14:52:41;34.10;73.50
12119;DHT22;6123;48.864;9.200;2022-07-25T14:55:09;33.40;75.40
12119;DHT22;6123;48.864;9.200;2022-07-25T14:57:35;33.70;75.30
12119;DHT22;6123;48.864;9.200;2022-07-25T15:00:01;34.00;75.00
12119;DHT22;6123;48.864;9.200;2022-07-25T15:02:29;34.10;74.60
12119;DHT22;6123;48.864;9.200;2022-07-25T15:04:54;33.80;74.50
12119;DHT22;6123;48.864;9.200;2022-07-25T15:07:22;33.40;75.50
12119;DHT22;6123;48.864;9.200;2022-07-25T15:09:48;33.40;74.30
12119;DHT22;6123;48.864;9.200;2022-07-25T15:12:13;33.00;74.40
12119;DHT22;6123;48.864;9.200;2022-07-25T15:14:39;33.00;74.60
12119;DHT22;6123;48.864;9.200;2022-07-25T15:17:07;33.40;73.30
12119;DHT22;6123;48.864;9.200;2022-07-25T15:19:33;33.10;73.50
12119;DHT22;6123;48.864;9.200;2022-07-25T15:21:58;33.00;74.20
12119;DHT22;6123;48.864;9.200;2022-07-25T15:24:24;33.10;74.40
12119;DHT22;6123;48.864;9.200;2022-07-25T15:26:50;33.50;75.70
12119;DHT22;6123;48.864;9.200;2022-07-25T15:29:15;32.60;76.00
12119;DHT22;6123;48.864;9.200;2022-07-25T15:31:46;32.00;78.20
12119;DHT22;6123;48.864;9.200;2022-07-25T15:34:14;31.80;78.80
12119;DHT22;6123;48.864;9.200;2022-07-25T15:36:40;31.70;80.30
12119;DHT22;6123;48.864;9.200;2022-07-25T15:39:06;31.80;80.60
12119;DHT22;6123;48.864;9.200;2022-07-25T15:41:32;32.20;80.60
12119;DHT22;6123;48.864;9.200;2022-07-25T15:43:58;32.60;80.10
12119;DHT22;6123;48.864;9.200;2022-07-25T15:46:24;32.40;80.70
12119;DHT22;6123;48.864;9.200;2022-07-25T15:48:51;31.50;81.80
12119;DHT22;6123;48.864;9.200;2022-07-25T15:51:17;30.50;84.40
12119;DHT22;6123;48.864;9.200;2022-07-25T15:53:43;30.00;87.40
12119;DHT22;6123;48.864;9.200;2022-07-25T15:56:11;29.90;87.60
12119;DHT22;6123;48.864;9.200;2022-07-25T15:58:40;30.00;87.80
12119;DHT22;6123;48.864;9.200;2022-07-25T16:01:06;30.20;87.70
12119;DHT22;6123;48.864;9.200;2022-07-25T16:03:31;30.70;87.00